Time;durP1;ratioP1;P1;durP2;ratioP2;P2;SDS_P1;SDS_P2;PMS_P1;PMS_P2;Temp;Humidity;BMP_temperature;BMP_pressure;BME280_temperature;BME280_humidity;BME280_pressure;Samples;Min_cycle;Max_cycle;Signal;HPM_P1;HPM_P2
2023/09/11 00:01:15;;;;;;;21.17;15.23;;;21.10;99.90;;;;;;5035177;28;20413;-72
2023/09/11 00:03:41;;;;;;;29.33;15.48;;;21.60;99.90;;;;;;5034174;28;20400;-74
2023/09/11 00:06:07;;;;;;;22.80;15.30;;;21.40;99.90;;;;;;5047118;28;20417;-73
2023/09/11 00:08:33;;;;;;;31.00;16.00;;;21.80;99.90;;;;;;5065082;28;20516;-73
2023/09/11 00:10:59;;;;;;;28.15;16.45;;;21.60;99.90;;;;;;5022953;28;20503;-74
2023/09/11 00:13:26;;;;;;;26.15;16.17;;;21.50;99.90;;;;;;5032336;28;20980;-73
2023/09/11 00:15:52;;;;;;;24.05;15.30;;;21.50;99.90;;;;;;5048472;28;20436;-73
2023/09/11 00:18:18;;;;;;;30.47;15.47;;;21.60;99.90;;;;;;5050627;28;20901;-74
2023/09/11 00:20:43;;;;;;;25.63;15.70;;;21.70;99.90;;;;;;5033024;28;20494;-74
2023/09/11 00:23:09;;;;;;;28.20;16.48;;;21.60;99.90;;;;;;4999939;28;20520;-73
2023/09/11 00:25:35;;;;;;;26.70;15.13;;;21.40;99.90;;;;;;5034789;28;20437;-74
2023/09/11 00:28:01;;;;;;;26.95;15.27;;;21.60;99.90;;;;;;5017780;28;20410;-74
2023/09/11 00:30:27;;;;;;;25.87;14.80;;;21.50;99.90;;;;;;5016934;28;21018;-73
2023/09/11 00:32:53;;;;;;;24.47;14.93;;;21.60;99.90;;;;;;5066576;28;20585;-73
2023/09/11 00:35:18;;;;;;;25.92;15.25;;;21.40;99.90;;;;;;5014943;28;20444;-73
2023/09/11 00:37:44;;;;;;;32.50;16.27;;;21.30;99.90;;;;;;5016878;28;20421;-73
2023/09/11 00:40:10;;;;;;;28.63;15.65;;;21.50;99.90;;;;;;5040476;28;20594;-73
2023/09/11 00:42:35;;;;;;;28.92;15.25;;;21.40;99.90;;;;;;5049518;28;20420;-74
2023/09/11 00:45:01;;;;;;;27.45;15.73;;;21.40;99.90;;;;;;5032844;28;20409;-74
2023/09/11 00:47:28;;;;;;;30.03;16.00;;;21.40;99.90;;;;;;5044448;28;20431;-74
2023/09/11 00:49:55;;;;;;;25.42;14.75;;;21.50;99.90;;;;;;5034863;28;20399;-74
2023/09/11 00:52:22;;;;;;;26.37;16.03;;;21.10;99.90;;;;;;5037657;28;20777;-74
2023/09/11 00:54:48;;;;;;;30.05;16.00;;;21.50;99.90;;;;;;5056174;28;20432;-74
2023/09/11 00:57:17;;;;;;;31.38;16.00;;;21.40;99.90;;;;;;5017719;28;20472;-74
2023/09/11 00:59:45;;;;;;;25.45;15.88;;;21.30;99.90;;;;;;5017646;28;20413;-73
2023/09/11 01:02:12;;;;;;;30.27;15.60;;;21.80;99.90;;;;;;5033058;28;20436;-74
2023/09/11 01:04:39;;;;;;;28.88;15.80;;;21.30;99.90;;;;;;5016986;28;20445;-74
2023/09/11 01:07:05;;;;;;;28.30;15.93;;;21.50;99.90;;;;;;5025179;28;20599;-74
2023/09/11 01:09:36;;;;;;;29.40;16.77;;;21.20;99.90;;;;;;5033481;28;20918;-74
2023/09/11 01:12:01;;;;;;;30.40;17.17;;;21.20;99.90;;;;;;5032855;28;20436;-74
2023/09/11 01:14:28;;;;;;;31.73;17.10;;;21.10;99.90;;;;;;5066502;28;20429;-74
2023/09/11 01:17:17;;;;;;;34.83;18.17;;;21.20;99.90;;;;;;5061373;28;20547;-74
2023/09/11 01:20:08;;;;;;;29.85;17.42;;;21.10;99.90;;;;;;5028794;28;20413;-74
2023/09/11 01:23:00;;;;;;;26.37;17.30;;;21.00;99.90;;;;;;5000294;28;20415;-74
2023/09/11 01:25:53;;;;;;;25.55;17.45;;;21.10;99.90;;;;;;5030521;28;20425;-73
2023/09/11 01:28:48;;;;;;;32.38;18.05;;;21.20;99.90;;;;;;5026911;28;20425;-73
2023/09/11 01:31:17;;;;;;;30.80;17.63;;;22.20;99.90;;;;;;5012499;28;21054;-74
2023/09/11 01:33:42;;;;;;;35.35;18.45;;;21.10;99.90;;;;;;5029809;28;20403;-73
2023/09/11 01:36:08;;;;;;;35.37;18.70;;;21.10;99.90;;;;;;5018211;28;20425;-73
2023/09/11 01:38:34;;;;;;;30.63;18.17;;;20.90;99.90;;;;;;5032523;28;20452;-74
2023/09/11 01:41:03;;;;;;;27.17;17.95;;;21.10;99.90;;;;;;5029591;28;20754;-73
2023/09/11 01:43:34;;;;;;;36.03;18.70;;;21.00;99.90;;;;;;5063251;28;20444;-74
2023/09/11 01:46:02;;;;;;;30.00;17.90;;;21.10;99.90;;;;;;5034041;28;20501;-74
2023/09/11 01:48:30;;;;;;;32.60;17.98;;;20.90;99.90;;;;;;5069055;28;20413;-74
2023/09/11 01:50:57;;;;;;;33.40;18.63;;;21.20;99.90;;;;;;5036520;28;20455;-73
2023/09/11 01:53:22;;;;;;;31.27;19.57;;;20.80;99.90;;;;;;5036317;28;20915;-74
2023/09/11 01:55:48;;;;;;;33.10;18.97;;;20.80;99.90;;;;;;5026938;28;20439;-74
2023/09/11 01:58:14;;;;;;;31.90;18.85;;;20.80;99.90;;;;;;5055378;28;20464;-80
2023/09/11 02:00:41;;;;;;;35.10;18.83;;;20.70;99.90;;;;;;5020717;28;20433;-81
2023/09/11 02:03:07;;;;;;;29.07;18.27;;;21.20;99.90;;;;;;5036410;28;20421;-74
2023/09/11 02:05:33;;;;;;;31.15;18.63;;;20.70;99.90;;;;;;5018846;28;20966;-74
2023/09/11 02:07:58;;;;;;;28.05;18.13;;;20.70;99.90;;;;;;5031312;28;20497;-74
2023/09/11 02:10:24;;;;;;;34.40;19.93;;;20.80;99.90;;;;;;5071196;28;20413;-73
2023/09/11 02:12:50;;;;;;;32.05;19.42;;;20.40;99.90;;;;;;5056412;28;20423;-74
2023/09/11 02:15:15;;;;;;;35.08;19.35;;;20.60;99.90;;;;;;5034203;28;20421;-74
2023/09/11 02:17:41;;;;;;;33.60;19.40;;;20.50;99.90;;;;;;5068617;28;20433;-73
2023/09/11 02:20:07;;;;;;;30.08;18.58;;;20.90;99.90;;;;;;5036192;28;20397;-74
2023/09/11 02:22:33;;;;;;;29.92;19.50;;;20.40;99.90;;;;;;5017622;28;20512;-73
2023/09/11 02:24:59;;;;;;;31.88;19.55;;;20.40;99.90;;;;;;5036128;28;20508;-74
2023/09/11 02:27:24;;;;;;;36.53;20.83;;;20.60;99.90;;;;;;5035174;28;20433;-73
2023/09/11 02:29:50;;;;;;;31.27;20.67;;;20.20;99.90;;;;;;5023982;28;20439;-73
2023/09/11 02:32:16;;;;;;;37.42;21.35;;;20.40;99.90;;;;;;5054233;28;20431;-73
2023/09/11 02:34:41;;;;;;;34.63;21.27;;;20.30;99.90;;;;;;5039038;28;20474;-73
2023/09/11 02:37:07;;;;;;;31.17;21.42;;;20.30;99.90;;;;;;5084412;28;20933;-74
2023/09/11 02:39:33;;;;;;;34.95;21.58;;;20.40;99.90;;;;;;5067833;28;20426;-74
2023/09/11 02:41:59;;;;;;;31.13;22.17;;;20.00;99.90;;;;;;5019797;28;20421;-74
2023/09/11 02:44:24;;;;;;;33.92;22.02;;;20.20;99.90;;;;;;5026259;28;20531;-73
2023/09/11 02:46:50;;;;;;;35.00;22.10;;;20.20;99.90;;;;;;5036502;28;20439;-73
2023/09/11 02:49:17;;;;;;;32.55;21.33;;;20.00;99.90;;;;;;5036156;28;20424;-74
2023/09/11 02:51:43;;;;;;;33.20;22.08;;;19.80;99.90;;;;;;5034937;28;20947;-74
2023/09/11 02:54:09;;;;;;;35.03;21.38;;;20.10;99.90;;;;;;5035844;28;20429;-74
2023/09/11 02:56:37;;;;;;;37.33;20.80;;;20.00;99.90;;;;;;5003139;28;20428;-74
2023/09/11 02:59:04;;;;;;;32.17;20.80;;;20.10;99.90;;;;;;5019970;28;20759;-74
2023/09/11 03:01:31;;;;;;;33.33;20.63;;;20.00;99.90;;;;;;5035486;28;20440;-74
2023/09/11 03:03:56;;;;;;;37.35;21.23;;;20.20;99.90;;;;;;5037746;28;20460;-74
2023/09/11 03:06:22;;;;;;;37.13;20.70;;;20.10;99.90;;;;;;5016549;28;20468;-74
2023/09/11 03:08:48;;;;;;;33.87;20.53;;;20.30;99.90;;;;;;5068483;28;20471;-74
2023/09/11 03:11:14;;;;;;;29.38;20.02;;;20.00;99.90;;;;;;5017125;28;20417;-73
2023/09/11 03:13:40;;;;;;;29.65;19.48;;;20.00;99.90;;;;;;5064812;28;20413;-73
2023/09/11 03:16:13;;;;;;;33.92;19.60;;;20.10;99.90;;;;;;5033351;28;20421;-73
2023/09/11 03:18:40;;;;;;;33.93;20.10;;;20.30;99.90;;;;;;5037600;28;20421;-73
2023/09/11 03:21:07;;;;;;;32.72;20.15;;;20.30;99.90;;;;;;5067313;28;20488;-73
2023/09/11 03:23:33;;;;;;;33.20;19.88;;;20.20;99.90;;;;;;5022057;28;20452;-73
2023/09/11 03:25:58;;;;;;;28.55;19.92;;;20.10;99.90;;;;;;5033373;28;20459;-74
2023/09/11 03:28:27;;;;;;;35.93;19.67;;;20.30;99.90;;;;;;5036579;28;20769;-74
2023/09/11 03:30:53;;;;;;;33.05;19.52;;;20.00;99.90;;;;;;5034237;28;20405;-72
2023/09/11 03:33:19;;;;;;;32.55;20.23;;;19.90;99.90;;;;;;5025797;28;20426;-72
2023/09/11 03:35:47;;;;;;;31.75;20.02;;;20.20;99.90;;;;;;5032137;28;20452;-72
2023/09/11 03:38:14;;;;;;;38.17;21.33;;;20.10;99.90;;;;;;5036246;28;20834;-74
2023/09/11 03:40:41;;;;;;;34.90;20.23;;;20.00;99.90;;;;;;5057385;28;20503;-72
2023/09/11 03:43:07;;;;;;;34.35;19.58;;;20.00;99.90;;;;;;5034168;28;20768;-72
2023/09/11 03:45:33;;;;;;;38.00;20.40;;;20.00;99.90;;;;;;5065083;28;20929;-72
2023/09/11 03:47:58;;;;;;;39.60;21.50;;;20.10;99.90;;;;;;5033128;28;20425;-73
2023/09/11 03:50:24;;;;;;;31.05;21.08;;;20.00;99.90;;;;;;5033593;28;20427;-73
2023/09/11 03:52:50;;;;;;;31.63;20.00;;;19.80;99.90;;;;;;5038526;28;20499;-73
2023/09/11 03:55:17;;;;;;;36.97;21.08;;;19.80;99.90;;;;;;5066413;28;20432;-73
2023/09/11 03:57:42;;;;;;;33.08;20.13;;;19.90;99.90;;;;;;5033298;28;20920;-73
2023/09/11 04:00:08;;;;;;;42.20;20.52;;;19.90;99.90;;;;;;5032647;28;20417;-73
2023/09/11 04:02:34;;;;;;;33.97;20.23;;;19.90;99.90;;;;;;5036098;28;20902;-73
2023/09/11 04:05:00;;;;;;;37.50;20.58;;;19.70;99.90;;;;;;5034496;28;20455;-73
2023/09/11 04:07:26;;;;;;;28.80;19.83;;;19.70;99.90;;;;;;5033805;28;20420;-73
2023/09/11 04:09:52;;;;;;;33.97;19.70;;;19.90;99.90;;;;;;5003998;28;20855;-74
2023/09/11 04:12:18;;;;;;;36.13;20.55;;;20.00;99.90;;;;;;5063546;28;20512;-74
2023/09/11 04:14:44;;;;;;;37.60;21.52;;;19.90;99.90;;;;;;5052282;28;20404;-73
2023/09/11 04:17:10;;;;;;;34.33;20.98;;;19.80;99.90;;;;;;5044619;28;20547;-73
2023/09/11 04:19:38;;;;;;;38.05;20.83;;;19.60;99.90;;;;;;5072424;28;20418;-73
2023/09/11 04:22:04;;;;;;;33.42;21.08;;;19.80;99.90;;;;;;5030845;28;20421;-73
2023/09/11 04:24:30;;;;;;;38.10;21.38;;;19.90;99.90;;;;;;5048286;28;20494;-73
2023/09/11 04:26:56;;;;;;;34.13;21.63;;;19.50;99.90;;;;;;5066761;28;20413;-73
2023/09/11 04:29:22;;;;;;;37.97;20.95;;;19.80;99.90;;;;;;5035322;28;20462;-73
2023/09/11 04:31:48;;;;;;;35.97;20.83;;;19.70;99.90;;;;;;5017080;28;20536;-73
2023/09/11 04:34:13;;;;;;;31.60;20.57;;;19.90;99.90;;;;;;5035765;28;20755;-81
2023/09/11 04:36:39;;;;;;;35.22;20.73;;;19.70;99.90;;;;;;5022490;28;20432;-80
2023/09/11 04:39:05;;;;;;;40.45;20.98;;;19.70;99.90;;;;;;5020630;28;20440;-80
2023/09/11 04:41:31;;;;;;;30.83;21.00;;;19.80;99.90;;;;;;5041720;28;20776;-79
2023/09/11 04:43:56;;;;;;;36.53;21.02;;;19.70;99.90;;;;;;5064599;28;20429;-80
2023/09/11 04:46:22;;;;;;;35.13;21.13;;;19.60;99.90;;;;;;5033010;28;20425;-79
2023/09/11 04:48:48;;;;;;;43.47;21.88;;;19.70;99.90;;;;;;5015180;28;20420;-80
2023/09/11 04:51:14;;;;;;;37.60;20.40;;;19.70;99.90;;;;;;5036104;28;20445;-80
2023/09/11 04:53:39;;;;;;;34.40;20.77;;;19.70;99.90;;;;;;5066486;28;20499;-79
2023/09/11 04:56:05;;;;;;;34.97;20.10;;;19.70;99.90;;;;;;5017287;28;20410;-80
2023/09/11 04:58:31;;;;;;;31.08;19.42;;;20.00;99.90;;;;;;5038855;28;20518;-79
2023/09/11 05:00:56;;;;;;;38.77;20.13;;;20.00;99.90;;;;;;5044984;28;20425;-79
2023/09/11 05:03:22;;;;;;;41.30;20.80;;;19.90;99.90;;;;;;5031618;28;20912;-79
2023/09/11 05:05:49;;;;;;;38.92;20.85;;;20.10;99.90;;;;;;5032817;28;20415;-79
2023/09/11 05:08:14;;;;;;;36.13;19.73;;;19.70;99.90;;;;;;5034294;28;20477;-80
2023/09/11 05:10:42;;;;;;;34.30;20.17;;;19.60;99.90;;;;;;5034706;28;20513;-79
2023/09/11 05:13:07;;;;;;;33.07;20.43;;;19.80;99.90;;;;;;5066992;28;20405;-80
2023/09/11 05:15:33;;;;;;;33.27;20.07;;;20.00;99.90;;;;;;5033658;28;20971;-81
2023/09/11 05:17:59;;;;;;;35.35;20.23;;;19.80;99.90;;;;;;5034366;28;20793;-80
2023/09/11 05:20:24;;;;;;;33.65;19.35;;;19.70;99.90;;;;;;5034133;28;20451;-80
2023/09/11 05:22:50;;;;;;;34.67;19.50;;;19.70;99.90;;;;;;5060990;28;20413;-79
2023/09/11 05:25:16;;;;;;;35.22;19.45;;;19.70;99.90;;;;;;5042356;28;20486;-80
2023/09/11 05:27:44;;;;;;;37.42;19.88;;;20.00;99.90;;;;;;5068209;28;20432;-79
2023/09/11 05:30:11;;;;;;;33.80;19.93;;;19.80;99.90;;;;;;5010903;28;20448;-79
2023/09/11 05:32:36;;;;;;;31.10;19.70;;;19.80;99.90;;;;;;5050722;28;20979;-80
2023/09/11 05:35:04;;;;;;;37.80;21.00;;;19.70;99.90;;;;;;5044268;28;20428;-79
2023/09/11 05:37:30;;;;;;;31.43;19.67;;;19.70;99.90;;;;;;5018139;28;21018;-79
2023/09/11 05:39:56;;;;;;;35.93;20.40;;;19.80;99.90;;;;;;5038080;28;20490;-79
2023/09/11 05:42:21;;;;;;;34.25;20.02;;;19.70;99.90;;;;;;5035467;28;20607;-81
2023/09/11 05:44:48;;;;;;;36.25;20.40;;;19.90;99.90;;;;;;5031385;28;20433;-79
2023/09/11 05:47:14;;;;;;;32.20;20.20;;;20.00;99.90;;;;;;5034978;28;20432;-79
2023/09/11 05:49:40;;;;;;;35.63;19.95;;;19.80;99.90;;;;;;5016558;28;20498;-80
2023/09/11 05:52:06;;;;;;;30.52;19.05;;;20.10;99.90;;;;;;5038901;28;20433;-80
2023/09/11 05:54:36;;;;;;;33.28;19.08;;;20.20;99.90;;;;;;5025439;28;20433;-81
2023/09/11 05:57:02;;;;;;;35.75;19.58;;;20.30;99.90;;;;;;5037360;28;20425;-80
2023/09/11 05:59:28;;;;;;;31.37;18.70;;;20.40;99.90;;;;;;5051272;28;20811;-82
2023/09/11 06:01:54;;;;;;;35.43;19.60;;;20.50;99.90;;;;;;5022138;28;20420;-83
2023/09/11 06:04:20;;;;;;;34.42;19.58;;;20.40;99.90;;;;;;5034091;28;20488;-83
2023/09/11 06:06:45;;;;;;;37.35;20.05;;;20.50;99.90;;;;;;5018184;28;20421;-83
2023/09/11 06:09:11;;;;;;;29.48;19.20;;;20.60;99.90;;;;;;5050058;28;20541;-83
2023/09/11 06:11:37;;;;;;;34.78;18.83;;;20.70;99.90;;;;;;5023204;28;20428;-75
2023/09/11 06:14:06;;;;;;;30.02;19.75;;;20.50;99.90;;;;;;5052538;28;20433;-75
2023/09/11 06:16:31;;;;;;;33.50;18.35;;;20.60;99.90;;;;;;5038391;28;20411;-74
2023/09/11 06:18:58;;;;;;;30.30;18.77;;;20.80;99.90;;;;;;5041245;28;20429;-75
2023/09/11 06:21:24;;;;;;;33.42;19.73;;;20.50;99.90;;;;;;5026454;28;20413;-75
2023/09/11 06:23:50;;;;;;;35.53;20.05;;;20.70;99.90;;;;;;5046835;28;20443;-75
2023/09/11 06:26:16;;;;;;;36.30;19.13;;;20.60;99.90;;;;;;5044859;28;20407;-75
2023/09/11 06:28:42;;;;;;;31.67;18.92;;;20.70;99.90;;;;;;5067235;28;20420;-75
2023/09/11 06:31:09;;;;;;;33.00;19.33;;;20.80;99.90;;;;;;5007930;28;20421;-75
2023/09/11 06:33:35;;;;;;;39.25;18.90;;;20.80;99.90;;;;;;5033074;28;20430;-75
2023/09/11 06:36:02;;;;;;;36.70;18.35;;;21.00;99.90;;;;;;5018372;28;20417;-74
2023/09/11 06:38:28;;;;;;;31.60;19.45;;;20.80;99.90;;;;;;5015139;28;20440;-75
2023/09/11 06:40:54;;;;;;;27.85;18.67;;;21.00;99.90;;;;;;5044575;28;20421;-74
2023/09/11 06:43:20;;;;;;;30.13;18.52;;;21.20;99.90;;;;;;5033348;28;20411;-74
2023/09/11 06:45:50;;;;;;;31.47;18.47;;;21.30;99.90;;;;;;5004080;28;20417;-81
2023/09/11 06:48:16;;;;;;;29.80;18.52;;;21.60;99.90;;;;;;5035226;28;20494;-82
2023/09/11 06:50:42;;;;;;;29.50;18.27;;;21.50;99.90;;;;;;5011530;28;20839;-82
2023/09/11 06:53:09;;;;;;;33.57;18.60;;;21.60;99.90;;;;;;5014694;28;20750;-82
2023/09/11 06:55:35;;;;;;;27.88;18.20;;;21.40;99.90;;;;;;5034320;28;20514;-81
2023/09/11 06:58:02;;;;;;;31.13;18.52;;;21.80;99.90;;;;;;5023340;28;20475;-81
2023/09/11 07:00:28;;;;;;;34.58;18.73;;;22.10;99.90;;;;;;5019002;28;20421;-81
2023/09/11 07:02:55;;;;;;;32.08;17.67;;;22.00;99.90;;;;;;5034136;28;20443;-81
2023/09/11 07:05:22;;;;;;;28.58;18.13;;;22.50;99.90;;;;;;5049113;28;20418;-82
2023/09/11 07:07:48;;;;;;;24.08;16.52;;;22.70;99.90;;;;;;5017953;28;20461;-81
2023/09/11 07:10:17;;;;;;;31.43;16.97;;;22.90;99.90;;;;;;5066983;28;20454;-81
2023/09/11 07:12:44;;;;;;;32.42;17.08;;;22.70;99.90;;;;;;5052108;28;20401;-81
2023/09/11 07:15:10;;;;;;;27.20;16.42;;;22.80;99.90;;;;;;5033354;28;20770;-81
2023/09/11 07:17:35;;;;;;;28.88;16.98;;;22.90;99.90;;;;;;5031647;28;20490;-81
2023/09/11 07:20:05;;;;;;;25.55;16.70;;;23.00;99.90;;;;;;5033824;28;20417;-81
2023/09/11 07:22:31;;;;;;;29.05;16.58;;;23.20;99.90;;;;;;5018784;28;20475;-82
2023/09/11 07:24:58;;;;;;;27.93;16.73;;;23.20;99.90;;;;;;5067900;28;20500;-82
2023/09/11 07:27:32;;;;;;;29.38;16.55;;;23.30;99.90;;;;;;5031271;28;20437;-81
2023/09/11 07:30:03;;;;;;;28.17;15.97;;;23.40;99.90;;;;;;5048055;28;20439;-81
2023/09/11 07:32:30;;;;;;;23.70;15.80;;;23.70;99.90;;;;;;5042969;28;20435;-80
2023/09/11 07:34:56;;;;;;;24.10;16.02;;;23.70;99.90;;;;;;5030092;28;20425;-80
2023/09/11 07:37:22;;;;;;;25.75;15.77;;;23.90;99.90;;;;;;5016607;28;20422;-80
2023/09/11 07:39:48;;;;;;;27.48;15.40;;;24.00;99.90;;;;;;5033520;28;20417;-81
2023/09/11 07:42:14;;;;;;;25.63;15.38;;;24.20;99.90;;;;;;5074457;28;20405;-81
2023/09/11 07:44:40;;;;;;;24.88;14.25;;;24.20;99.90;;;;;;5035110;28;20903;-84
2023/09/11 07:47:09;;;;;;;24.02;14.18;;;24.40;99.90;;;;;;5033966;28;20434;-84
2023/09/11 07:49:35;;;;;;;22.00;13.97;;;24.40;99.90;;;;;;5019577;28;20409;-85
2023/09/11 07:52:01;;;;;;;22.65;13.63;;;24.40;99.90;;;;;;5035460;28;20471;-84
2023/09/11 07:54:27;;;;;;;22.52;13.27;;;24.50;99.90;;;;;;5031306;28;20423;-84
2023/09/11 07:56:52;;;;;;;23.13;12.63;;;24.80;99.90;;;;;;5036613;28;20434;-84
2023/09/11 07:59:18;;;;;;;22.17;13.52;;;24.60;99.90;;;;;;5050611;28;20492;-80
2023/09/11 08:01:44;;;;;;;20.80;12.68;;;24.80;99.90;;;;;;5048083;28;20467;-77
2023/09/11 08:04:10;;;;;;;20.53;13.03;;;25.20;99.90;;;;;;5033873;28;20424;-78
2023/09/11 08:06:35;;;;;;;22.67;12.55;;;25.50;99.90;;;;;;5031202;28;20415;-77
2023/09/11 08:09:03;;;;;;;24.43;12.53;;;25.60;99.90;;;;;;5006801;28;20428;-77
2023/09/11 08:11:30;;;;;;;19.90;11.63;;;25.80;99.90;;;;;;5030353;28;20409;-77
2023/09/11 08:13:56;;;;;;;18.77;11.02;;;26.00;99.90;;;;;;5052457;28;20840;-77
2023/09/11 08:16:22;;;;;;;20.67;11.10;;;26.10;99.90;;;;;;5033603;28;20433;-78
2023/09/11 08:18:48;;;;;;;22.50;11.57;;;26.30;99.90;;;;;;5021686;28;20455;-77
2023/09/11 08:21:13;;;;;;;18.93;11.27;;;26.10;99.90;;;;;;5020493;28;20423;-77
2023/09/11 08:23:43;;;;;;;18.92;10.68;;;26.50;99.90;;;;;;5043791;28;20514;-77
2023/09/11 08:26:10;;;;;;;17.85;10.30;;;26.50;99.90;;;;;;5020799;28;20475;-77
2023/09/11 08:28:36;;;;;;;17.65;9.40;;;26.70;99.90;;;;;;5034766;28;20900;-77
2023/09/11 08:31:03;;;;;;;19.10;9.25;;;26.90;99.90;;;;;;5019430;28;20512;-77
2023/09/11 08:33:29;;;;;;;14.73;8.75;;;26.80;99.90;;;;;;5037527;28;20429;-77
2023/09/11 08:35:55;;;;;;;15.07;9.80;;;27.20;99.90;;;;;;5050438;28;20427;-77
2023/09/11 08:38:21;;;;;;;16.33;9.93;;;26.70;99.90;;;;;;5035749;28;20423;-77
2023/09/11 08:40:46;;;;;;;17.85;9.55;;;26.90;99.90;;;;;;5036757;28;20785;-77
2023/09/11 08:43:12;;;;;;;18.30;9.93;;;26.60;99.90;;;;;;5018820;28;20527;-78
2023/09/11 08:45:38;;;;;;;20.60;10.00;;;26.90;99.90;;;;;;5065648;28;20413;-77
2023/09/11 08:48:13;;;;;;;21.60;10.25;;;27.00;99.90;;;;;;5057976;28;20884;-78
2023/09/11 08:51:03;;;;;;;18.73;10.40;;;27.20;99.90;;;;;;5016235;28;20425;-78
2023/09/11 08:53:31;;;;;;;17.55;11.27;;;27.60;99.90;;;;;;5022386;28;20421;-78
2023/09/11 08:55:57;;;;;;;19.98;11.23;;;27.40;99.90;;;;;;5078412;28;20424;-78
2023/09/11 08:58:24;;;;;;;16.23;11.20;;;27.50;99.90;;;;;;5017824;28;20435;-78
2023/09/11 09:00:50;;;;;;;17.45;10.95;;;27.50;99.90;;;;;;5033136;28;20418;-78
2023/09/11 09:03:17;;;;;;;17.85;11.18;;;27.60;99.90;;;;;;5034297;28;20412;-78
2023/09/11 09:05:44;;;;;;;18.08;11.07;;;27.90;99.90;;;;;;5019389;28;20416;-78
2023/09/11 09:08:12;;;;;;;21.48;11.77;;;27.90;99.90;;;;;;5035301;28;20424;-77
2023/09/11 09:10:39;;;;;;;19.27;11.03;;;27.40;99.90;;;;;;5032406;28;20495;-77
2023/09/11 09:13:06;;;;;;;20.55;11.40;;;28.00;99.90;;;;;;5050871;28;20457;-77
2023/09/11 09:15:35;;;;;;;19.60;11.18;;;27.80;99.90;;;;;;5033886;28;20444;-77
2023/09/11 09:18:01;;;;;;;21.45;12.40;;;28.70;99.90;;;;;;5038931;28;20431;-77
2023/09/11 09:20:31;;;;;;;18.15;12.05;;;28.10;99.90;;;;;;5017203;28;20844;-77
2023/09/11 09:22:58;;;;;;;18.95;11.88;;;28.00;99.90;;;;;;5026320;28;20427;-77
2023/09/11 09:25:26;;;;;;;17.48;11.00;;;28.40;99.90;;;;;;5035838;28;20428;-77
2023/09/11 09:27:52;;;;;;;19.27;11.43;;;28.50;99.90;;;;;;5039340;28;20419;-77
2023/09/11 09:30:38;;;;;;;20.27;11.70;;;28.50;99.90;;;;;;5041467;28;20435;-77
2023/09/11 09:33:13;;;;;;;18.10;11.20;;;28.80;99.90;;;;;;5067943;28;20415;-77
2023/09/11 09:35:39;;;;;;;16.40;11.23;;;28.80;99.90;;;;;;5042914;28;20436;-77
2023/09/11 09:38:05;;;;;;;18.52;12.05;;;29.00;99.90;;;;;;5055463;28;20557;-77
2023/09/11 09:40:31;;;;;;;20.20;12.43;;;28.90;99.90;;;;;;5036073;28;20423;-76
2023/09/11 09:42:59;;;;;;;22.27;12.57;;;28.90;99.90;;;;;;5028811;28;20421;-77
2023/09/11 09:45:33;;;;;;;17.63;12.15;;;28.70;99.90;;;;;;5031354;28;20477;-77
2023/09/11 09:48:11;;;;;;;16.90;11.52;;;28.90;99.90;;;;;;5041516;28;20423;-77
2023/09/11 09:50:57;;;;;;;22.65;11.60;;;29.30;99.90;;;;;;5024160;28;20442;-77
2023/09/11 09:53:29;;;;;;;17.35;12.25;;;28.90;99.90;;;;;;5022199;28;20569;-76
2023/09/11 09:56:03;;;;;;;17.77;12.73;;;29.30;99.90;;;;;;5066090;28;20433;-76
2023/09/11 09:58:30;;;;;;;19.08;12.82;;;29.30;99.90;;;;;;5021195;28;20442;-76
2023/09/11 10:01:13;;;;;;;19.38;13.65;;;29.30;99.90;;;;;;5018567;28;20770;-77
2023/09/11 10:03:51;;;;;;;19.98;13.90;;;28.70;99.90;;;;;;5062698;28;20444;-76
2023/09/11 10:06:22;;;;;;;22.33;13.10;;;28.50;99.90;;;;;;5047880;28;20437;-77
2023/09/11 10:09:05;;;;;;;19.67;13.02;;;28.70;99.90;;;;;;5043205;28;20908;-77
2023/09/11 10:11:33;;;;;;;22.55;14.57;;;29.00;99.90;;;;;;5037744;28;20799;-77
2023/09/11 10:14:01;;;;;;;23.40;13.25;;;29.10;99.90;;;;;;5051594;28;20488;-77
2023/09/11 10:16:28;;;;;;;18.33;13.15;;;29.20;99.90;;;;;;5056236;28;20878;-77
2023/09/11 10:18:54;;;;;;;20.80;13.15;;;29.40;99.90;;;;;;5033489;28;20447;-77
2023/09/11 10:21:20;;;;;;;21.90;14.45;;;29.60;99.90;;;;;;5051578;28;20435;-78
2023/09/11 10:23:46;;;;;;;18.43;13.30;;;29.50;99.90;;;;;;5023609;28;20427;-77
2023/09/11 10:26:18;;;;;;;19.50;13.05;;;29.50;99.90;;;;;;5040562;28;20426;-77
2023/09/11 10:28:48;;;;;;;23.60;12.73;;;29.50;99.90;;;;;;5072773;28;20417;-77
2023/09/11 10:31:21;;;;;;;20.25;12.45;;;29.30;99.90;;;;;;5046478;28;20423;-79
2023/09/11 10:33:53;;;;;;;18.52;13.48;;;29.50;99.90;;;;;;5049585;28;20425;-78
2023/09/11 10:36:22;;;;;;;19.23;13.77;;;29.70;99.90;;;;;;5034476;28;20437;-77
2023/09/11 10:38:50;;;;;;;19.08;12.15;;;29.80;99.90;;;;;;5028027;28;20436;-78
2023/09/11 10:41:16;;;;;;;17.27;12.10;;;30.00;99.90;;;;;;5039840;28;20441;-78
2023/09/11 10:43:47;;;;;;;19.50;12.75;;;29.90;99.90;;;;;;5050094;28;20441;-77
2023/09/11 10:46:30;;;;;;;18.67;12.75;;;29.60;99.90;;;;;;5069328;28;20483;-77
2023/09/11 10:48:58;;;;;;;19.40;12.80;;;29.70;99.90;;;;;;5038447;28;20440;-78
2023/09/11 10:51:25;;;;;;;19.98;12.80;;;29.70;99.90;;;;;;5052323;28;20421;-78
2023/09/11 10:53:51;;;;;;;22.17;13.63;;;29.40;99.90;;;;;;5037344;28;20401;-77
2023/09/11 10:56:17;;;;;;;18.50;12.63;;;29.20;99.90;;;;;;5018636;28;20490;-77
2023/09/11 10:58:43;;;;;;;18.15;11.77;;;29.10;99.90;;;;;;5036903;28;20479;-77
2023/09/11 11:01:13;;;;;;;17.88;11.25;;;29.30;99.90;;;;;;5020682;28;20415;-78
2023/09/11 11:03:41;;;;;;;17.77;12.52;;;29.80;99.90;;;;;;5053322;28;20430;-78
2023/09/11 11:06:12;;;;;;;17.25;12.32;;;30.00;99.90;;;;;;5047664;28;20424;-78
2023/09/11 11:08:39;;;;;;;17.17;12.40;;;30.10;99.90;;;;;;5037466;28;20425;-78
2023/09/11 11:11:25;;;;;;;18.20;13.68;;;30.30;99.90;;;;;;5030179;28;20929;-78
2023/09/11 11:14:15;;;;;;;19.48;13.93;;;30.10;99.90;;;;;;5031481;28;20486;-78
2023/09/11 11:17:00;;;;;;;17.25;11.45;;;29.60;99.90;;;;;;5032767;28;20948;-78
2023/09/11 11:19:31;;;;;;;18.50;12.15;;;29.60;99.90;;;;;;5015843;28;20465;-77
2023/09/11 11:21:57;;;;;;;20.55;14.48;;;29.60;99.90;;;;;;5026146;28;20428;-78
2023/09/11 11:24:24;;;;;;;16.77;11.68;;;29.50;99.90;;;;;;5062283;28;20433;-77
2023/09/11 11:26:55;;;;;;;21.55;14.43;;;29.50;99.90;;;;;;5056201;28;20471;-77
2023/09/11 11:29:21;;;;;;;18.35;12.30;;;29.50;99.90;;;;;;5033527;28;20429;-77
2023/09/11 11:31:51;;;;;;;20.15;13.68;;;29.60;99.90;;;;;;5016120;28;20508;-77
2023/09/11 11:34:21;;;;;;;16.63;13.55;;;29.80;99.90;;;;;;5018345;28;20516;-76
2023/09/11 11:36:47;;;;;;;18.08;13.82;;;29.60;99.90;;;;;;5036015;28;20450;-77
2023/09/11 11:39:14;;;;;;;18.25;12.98;;;29.70;99.90;;;;;;5035933;28;20456;-77
2023/09/11 11:41:40;;;;;;;16.88;11.45;;;30.00;99.90;;;;;;5031997;28;20416;-76
2023/09/11 11:44:06;;;;;;;13.50;11.48;;;30.00;99.90;;;;;;4999562;28;20476;-78
2023/09/11 11:46:32;;;;;;;14.85;11.68;;;30.30;99.90;;;;;;5066113;28;20508;-77
2023/09/11 11:48:58;;;;;;;18.45;11.38;;;30.20;99.90;;;;;;5040554;28;20807;-77
2023/09/11 11:51:31;;;;;;;14.43;9.82;;;30.20;99.90;;;;;;5038645;28;20415;-77
2023/09/11 11:53:58;;;;;;;11.15;6.00;;;30.60;99.90;;;;;;5015281;28;20500;-85
2023/09/11 11:56:28;;;;;;;8.38;5.43;;;30.60;99.90;;;;;;5046722;28;20413;-85
2023/09/11 11:58:55;;;;;;;10.55;5.70;;;30.40;99.90;;;;;;5016256;28;20421;-85
2023/09/11 12:01:21;;;;;;;14.65;6.15;;;30.30;99.90;;;;;;5017257;28;20421;-86
2023/09/11 12:03:51;;;;;;;11.88;5.22;;;30.30;99.90;;;;;;5018346;28;20432;-85
2023/09/11 12:06:18;;;;;;;9.45;5.53;;;30.20;99.90;;;;;;5042846;28;20770;-86
2023/09/11 12:08:46;;;;;;;8.80;5.43;;;30.40;99.90;;;;;;5034702;28;20474;-86
2023/09/11 12:11:12;;;;;;;12.40;5.40;;;30.30;99.80;;;;;;5050521;28;20424;-85
2023/09/11 12:13:37;;;;;;;6.78;4.70;;;30.50;99.40;;;;;;5032926;28;20421;-85
2023/09/11 12:16:03;;;;;;;8.98;5.25;;;30.70;99.30;;;;;;5077369;28;20427;-85
2023/09/11 12:18:30;;;;;;;9.30;5.90;;;30.90;99.20;;;;;;5030180;28;20439;-85
2023/09/11 12:21:02;;;;;;;10.25;5.07;;;31.10;99.70;;;;;;5059069;28;20411;-84
2023/09/11 12:23:29;;;;;;;8.33;4.47;;;30.90;99.10;;;;;;5044050;28;20620;-87
2023/09/11 12:25:55;;;;;;;8.30;4.30;;;31.10;99.00;;;;;;5066567;28;20413;-85
2023/09/11 12:28:23;;;;;;;6.78;4.07;;;31.00;98.60;;;;;;5021406;28;20429;-84
2023/09/11 12:30:49;;;;;;;9.82;4.13;;;31.10;97.90;;;;;;5028129;28;20427;-84